Time;durP1;ratioP1;P1;durP2;ratioP2;P2;SDS_P1;SDS_P2;PMS_P1;PMS_P2;Temp;Humidity;BMP_temperature;BMP_pressure;BME280_temperature;BME280_humidity;BME280_pressure;Samples;Min_cycle;Max_cycle;Signal;HPM_P1;HPM_P2
2022/11/12 00:00:22;;;;;;;;;45.00;40.75;;;;;11.78;75.52;102583.22;5002179;28;45435;-70
2022/11/12 00:02:47;;;;;;;;;44.00;37.75;;;;;11.96;75.70;102599.56;5124646;27;45389;-70
2022/11/12 00:05:13;;;;;;;;;54.50;43.50;;;;;11.94;75.26;102601.38;5098783;27;45546;-70
2022/11/12 00:07:38;;;;;;;;;43.25;36.75;;;;;11.69;75.64;102563.97;5097344;27;45385;-70
2022/11/12 00:10:04;;;;;;;;;49.25;41.50;;;;;11.86;75.39;102592.75;5096621;27;45447;-69
2022/11/12 00:12:30;;;;;;;;;49.75;41.50;;;;;11.89;75.58;102606.91;5096272;27;45377;-69
2022/11/12 00:14:55;;;;;;;;;42.50;37.25;;;;;11.90;75.15;102607.75;5096868;27;46248;-69
2022/11/12 00:17:21;;;;;;;;;51.00;41.00;;;;;11.84;75.71;102597.31;5095918;27;45237;-69
2022/11/12 00:19:46;;;;;;;;;37.75;34.00;;;;;11.85;76.09;102607.03;5129861;27;45426;-69
2022/11/12 00:22:11;;;;;;;;;45.25;40.75;;;;;11.81;75.91;102600.94;5129262;27;45273;-69
2022/11/12 00:24:37;;;;;;;;;37.50;33.50;;;;;11.77;76.62;102604.66;5108732;27;45387;-69
2022/11/12 00:27:02;;;;;;;;;45.25;39.25;;;;;11.81;76.80;102608.09;5098967;27;45349;-69
2022/11/12 00:29:27;;;;;;;;;40.00;38.00;;;;;11.69;77.34;102585.34;5116283;27;45612;-69
2022/11/12 00:31:53;;;;;;;;;45.50;39.25;;;;;11.79;77.62;102602.78;5126115;27;45360;-69
2022/11/12 00:34:19;;;;;;;;;53.50;44.25;;;;;11.67;77.31;102592.53;5104818;27;45406;-69
2022/11/12 00:36:44;;;;;;;;;47.25;40.00;;;;;11.74;76.88;102605.63;5114691;27;45479;-69
2022/11/12 00:39:09;;;;;;;;;50.25;41.25;;;;;11.35;76.48;102539.25;5098741;27;45920;-69
2022/11/12 00:41:35;;;;;;;;;48.00;39.25;;;;;11.64;77.13;102590.84;5097702;27;45522;-69
2022/11/12 00:44:00;;;;;;;;;39.50;37.50;;;;;10.84;77.07;102455.50;5124169;27;46280;-69
2022/11/12 00:46:26;;;;;;;;;45.50;38.25;;;;;11.70;76.94;102609.34;5095283;27;45418;-69
2022/11/12 00:48:51;;;;;;;;;44.75;39.50;;;;;11.63;77.36;102593.56;5108665;27;45518;-69
2022/11/12 00:51:16;;;;;;;;;34.25;29.00;;;;;11.70;77.87;102601.31;5116128;27;45439;-69
2022/11/12 00:53:42;;;;;;;;;50.75;42.00;;;;;11.68;77.24;102603.16;5126310;27;45522;-68
2022/11/12 00:56:08;;;;;;;;;44.00;38.25;;;;;11.59;76.52;102591.00;5095310;27;45383;-69
2022/11/12 00:58:35;;;;;;;;;40.75;36.25;;;;;11.68;76.15;102603.16;5091277;27;45603;-68
2022/11/12 01:01:11;;;;;;;;;44.25;38.25;;;;;11.55;76.11;102567.97;5082432;27;45339;-69
2022/11/12 01:03:38;;;;;;;;;44.25;38.25;;;;;11.64;75.96;102584.63;5030840;28;46281;-69
2022/11/12 01:06:13;;;;;;;;;38.25;35.50;;;;;11.30;76.19;102538.53;5031064;28;45372;-71
2022/11/12 01:08:40;;;;;;;;;37.75;34.50;;;;;11.69;76.54;102596.03;5078912;27;45382;-70
2022/11/12 01:11:20;;;;;;;;;41.25;38.00;;;;;11.68;76.43;102592.47;5046481;27;45589;-69
2022/11/12 01:13:51;;;;;;;;;35.50;32.50;;;;;11.41;75.80;102547.06;5030656;28;45626;-69
2022/11/12 01:16:20;;;;;;;;;43.50;38.50;;;;;11.65;76.39;102597.03;5031421;28;45407;-69
2022/11/12 01:18:46;;;;;;;;;42.25;37.25;;;;;11.63;76.87;102594.41;5031173;28;45370;-69
2022/11/12 01:21:13;;;;;;;;;46.25;40.00;;;;;11.59;77.70;102588.34;5031291;28;45355;-69
2022/11/12 01:23:42;;;;;;;;;42.75;38.50;;;;;11.60;77.11;102589.19;5031348;28;46420;-69
2022/11/12 01:26:10;;;;;;;;;49.25;39.25;;;;;11.39;76.99;102556.03;5031209;28;45809;-69
2022/11/12 01:28:36;;;;;;;;;41.50;36.75;;;;;11.54;76.25;102587.59;5030981;28;45520;-69
2022/11/12 01:31:21;;;;;;;;;40.75;35.50;;;;;11.54;76.50;102584.03;5031019;28;45378;-69
2022/11/12 01:33:51;;;;;;;;;39.75;35.00;;;;;11.52;76.65;102576.09;5031015;28;46722;-68
2022/11/12 01:36:17;;;;;;;;;42.50;37.50;;;;;11.57;76.18;102571.47;5030951;28;45803;-68
2022/11/12 01:38:44;;;;;;;;;39.75;36.75;;;;;11.58;75.89;102580.34;5032013;28;45417;-68
2022/11/12 01:41:16;;;;;;;;;37.75;36.75;;;;;11.43;75.89;102566.59;5030530;28;45483;-68
2022/11/12 01:43:42;;;;;;;;;45.50;38.50;;;;;11.57;76.11;102586.63;5030140;28;47128;-70
2022/11/12 01:46:26;;;;;;;;;44.75;38.00;;;;;11.34;76.64;102542.84;5031378;28;45503;-70
2022/11/12 01:49:01;;;;;;;;;40.75;34.25;;;;;11.34;75.78;102539.31;5030527;28;45506;-69
2022/11/12 01:51:34;;;;;;;;;34.25;28.25;;;;;11.51;76.27;102568.13;5026866;27;45512;-68
2022/11/12 01:54:03;;;;;;;;;48.00;40.75;;;;;11.47;76.08;102561.13;5105552;27;45409;-71
2022/11/12 01:56:30;;;;;;;;;52.75;43.00;;;;;11.26;75.75;102523.53;5136428;27;45447;-68
2022/11/12 01:59:20;;;;;;;;;43.50;38.00;;;;;11.44;75.92;102548.75;5136777;27;45567;-70
2022/11/12 02:01:45;;;;;;;;;42.75;36.75;;;;;11.40;77.21;102548.00;5135760;27;45380;-68
2022/11/12 02:04:10;;;;;;;;;42.50;36.50;;;;;11.43;76.88;102560.34;5134310;27;46457;-68
2022/11/12 02:06:38;;;;;;;;;44.75;38.25;;;;;11.35;76.47;102549.94;5134764;27;45388;-71
2022/11/12 02:09:04;;;;;;;;;44.75;37.75;;;;;11.39;76.54;102542.69;5136320;27;45382;-71
2022/11/12 02:11:29;;;;;;;;;45.50;37.75;;;;;11.31;76.40;102532.28;5135985;27;45306;-71
2022/11/12 02:14:02;;;;;;;;;46.00;38.75;;;;;11.23;76.40;102524.50;5054986;27;46762;-72
2022/11/12 02:16:33;;;;;;;;;43.00;35.00;;;;;11.08;77.34;102509.88;5031431;28;45453;-71
2022/11/12 02:18:59;;;;;;;;;46.00;41.00;;;;;11.37;77.15;102563.25;5031295;27;45316;-71
2022/11/12 02:21:26;;;;;;;;;39.25;37.00;;;;;11.40;76.69;102572.06;5031517;28;45280;-71
2022/11/12 02:24:05;;;;;;;;;39.75;35.00;;;;;11.41;75.53;102575.59;5031248;28;45844;-73
2022/11/12 02:26:37;;;;;;;;;42.50;37.25;;;;;11.30;76.66;102551.91;5030044;28;45795;-72
2022/11/12 02:29:03;;;;;;;;;38.50;33.75;;;;;11.27;76.27;102544.84;5031302;28;45428;-71
2022/11/12 02:31:29;;;;;;;;;35.75;35.00;;;;;11.37;76.73;102569.47;5013509;28;45748;-72
2022/11/12 02:33:55;;;;;;;;;39.25;35.25;;;;;11.28;77.57;102556.41;5031052;28;46649;-71
2022/11/12 02:36:21;;;;;;;;;41.75;35.75;;;;;11.27;78.25;102552.00;5031362;28;45399;-72
2022/11/12 02:38:46;;;;;;;;;40.00;35.00;;;;;11.38;78.31;102565.88;5029758;28;45350;-70
2022/11/12 02:41:12;;;;;;;;;37.75;34.75;;;;;11.33;78.25;102557.13;5030810;28;45524;-73
2022/11/12 02:43:38;;;;;;;;;36.00;34.25;;;;;11.38;78.37;102555.19;5030222;28;45564;-72
2022/11/12 02:46:04;;;;;;;;;33.50;29.50;;;;;11.15;77.80;102521.22;5029566;28;45793;-72
2022/11/12 02:48:29;;;;;;;;;45.00;38.75;;;;;11.34;77.14;102548.19;5031096;28;45486;-72
2022/11/12 02:50:54;;;;;;;;;32.75;26.50;;;;;11.34;76.96;102537.50;5031340;28;45447;-72
2022/11/12 02:53:20;;;;;;;;;33.25;32.25;;;;;11.21;76.52;102515.66;5030419;28;45412;-71
2022/11/12 02:55:45;;;;;;;;;36.25;34.50;;;;;11.15;76.69;102505.22;5030539;28;45544;-71
2022/11/12 02:58:10;;;;;;;;;31.75;31.75;;;;;11.38;76.94;102538.28;5031083;27;45487;-71
2022/11/12 03:00:36;;;;;;;;;30.75;29.00;;;;;11.27;77.68;102522.63;5031559;28;45540;-72
2022/11/12 03:03:01;;;;;;;;;37.25;32.75;;;;;11.31;77.67;102537.63;5032284;27;46340;-71
2022/11/12 03:05:29;;;;;;;;;32.75;32.75;;;;;11.27;77.06;102534.16;5032481;28;45428;-70
2022/11/12 03:07:58;;;;;;;;;34.50;31.75;;;;;11.06;76.42;102500.16;5032670;28;45513;-70
2022/11/12 03:10:25;;;;;;;;;35.00;28.75;;;;;11.25;76.49;102530.66;5032726;28;45602;-69
2022/11/12 03:12:51;;;;;;;;;37.25;35.50;;;;;11.32;76.30;102550.03;5032250;28;45503;-69
2022/11/12 03:15:17;;;;;;;;;37.75;34.75;;;;;11.14;77.47;102513.28;5047534;28;45509;-70
2022/11/12 03:17:43;;;;;;;;;36.25;33.00;;;;;11.22;78.36;102524.56;5032504;28;45414;-69
2022/11/12 03:20:09;;;;;;;;;34.75;33.50;;;;;11.00;78.27;102479.88;5032885;28;45329;-70
2022/11/12 03:22:35;;;;;;;;;37.50;35.00;;;;;11.20;77.53;102507.72;5033076;28;46253;-70
2022/11/12 03:25:00;;;;;;;;;31.00;29.50;;;;;11.09;77.79;102500.94;5031627;28;45391;-70
2022/11/12 03:27:26;;;;;;;;;36.50;35.25;;;;;11.25;77.39;102524.47;5031896;28;45638;-70
2022/11/12 03:29:51;;;;;;;;;35.25;31.50;;;;;11.20;78.18;102523.72;5033251;28;45377;-70
2022/11/12 03:32:16;;;;;;;;;37.50;33.50;;;;;11.26;77.96;102531.56;5015063;27;48464;-69
2022/11/12 03:34:42;;;;;;;;;36.50;32.50;;;;;11.03;78.41;102489.59;5031805;28;45438;-70
2022/11/12 03:37:08;;;;;;;;;37.00;35.00;;;;;11.23;78.17;102529.00;5031776;27;45562;-69
2022/11/12 03:39:34;;;;;;;;;36.00;33.25;;;;;11.14;78.76;102502.59;5033042;28;45530;-70
2022/11/12 03:41:59;;;;;;;;;35.75;33.00;;;;;11.25;78.08;102530.66;5032802;28;46988;-69
2022/11/12 03:44:25;;;;;;;;;37.75;32.00;;;;;11.21;77.90;102526.34;5032360;28;45632;-69
2022/11/12 03:46:50;;;;;;;;;30.75;29.25;;;;;11.14;78.53;102523.97;5032539;28;45520;-70
2022/11/12 03:49:15;;;;;;;;;30.75;30.75;;;;;11.15;78.38;102525.69;5032989;28;45450;-70
2022/11/12 03:51:41;;;;;;;;;27.50;27.25;;;;;10.83;78.68;102476.91;5032325;28;45473;-70
2022/11/12 03:54:06;;;;;;;;;37.00;32.00;;;;;11.11;78.72;102524.94;5032673;27;45425;-70
2022/11/12 03:56:32;;;;;;;;;39.00;30.00;;;;;11.16;78.72;102536.34;5031790;28;45695;-70
2022/11/12 03:58:57;;;;;;;;;35.50;30.25;;;;;10.94;78.42;102496.09;5031758;28;45470;-70
2022/11/12 04:01:22;;;;;;;;;30.00;29.75;;;;;11.13;79.05;102525.75;5031978;27;46195;-70
2022/11/12 04:03:48;;;;;;;;;30.00;30.00;;;;;11.17;79.04;102539.88;5031452;27;45540;-70
2022/11/12 04:08:57;;;;;;;;;33.25;25.75;;;;;11.13;77.55;102538.22;5033067;28;45487;-72
2022/11/12 04:11:22;;;;;;;;;22.25;22.25;;;;;10.42;77.90;102414.13;5030968;28;46990;-72
2022/11/12 04:13:48;;;;;;;;;30.50;27.75;;;;;11.03;78.45;102517.16;5032718;28;45579;-71
2022/11/12 04:21:53;;;;;;;;;24.50;24.50;;;;;10.86;78.15;102500.81;5032493;28;45414;-72
2022/11/12 04:27:18;;;;;;;;;28.25;26.75;;;;;10.94;78.19;102513.00;5032664;28;45460;-72
2022/11/12 04:32:31;;;;;;;;;31.50;28.50;;;;;11.03;78.45;102526.97;5032773;28;45427;-72
2022/11/12 04:34:56;;;;;;;;;29.50;26.25;;;;;11.15;77.62;102552.38;5015530;28;45452;-73
2022/11/12 04:37:25;;;;;;;;;26.75;23.00;;;;;11.14;78.07;102546.19;5033553;28;45312;-73
2022/11/12 04:39:51;;;;;;;;;28.75;26.25;;;;;10.85;77.34;102497.28;5032857;28;45620;-72
2022/11/12 04:45:04;;;;;;;;;37.50;32.50;;;;;11.09;77.48;102540.13;5032973;28;45622;-71
2022/11/12 04:47:37;;;;;;;;;30.75;28.25;;;;;11.04;77.39;102529.59;5014303;28;45404;-72
2022/11/12 04:50:23;;;;;;;;;26.25;24.75;;;;;11.07;77.41;102532.16;5014678;28;45421;-72
2022/11/12 04:52:48;;;;;;;;;25.25;23.00;;;;;11.11;77.17;102535.63;5032433;28;46530;-72
2022/11/12 04:55:13;;;;;;;;;22.00;22.00;;;;;11.10;76.94;102525.84;5032175;28;45374;-72
2022/11/12 04:57:39;;;;;;;;;28.50;25.50;;;;;11.05;76.65;102526.00;5014142;28;45538;-71
2022/11/12 05:00:05;;;;;;;;;21.75;21.00;;;;;10.96;76.54;102510.28;5032124;28;45614;-72
2022/11/12 05:02:30;;;;;;;;;23.50;23.50;;;;;10.90;76.98;102499.78;5014459;28;45809;-71
2022/11/12 05:04:56;;;;;;;;;25.25;23.00;;;;;10.97;76.69;102528.03;5032634;27;45308;-72
2022/11/12 05:07:21;;;;;;;;;24.75;22.00;;;;;10.74;76.62;102483.41;5013955;27;45472;-70
2022/11/12 05:09:46;;;;;;;;;23.50;23.00;;;;;10.72;76.98;102486.13;5031567;28;45554;-69
2022/11/12 05:12:12;;;;;;;;;24.25;22.00;;;;;11.05;76.66;102534.03;5013410;27;45863;-70
2022/11/12 05:14:37;;;;;;;;;26.50;26.25;;;;;11.03;78.12;102545.69;5030277;28;45294;-70
2022/11/12 05:17:03;;;;;;;;;24.25;23.50;;;;;11.03;76.59;102538.53;5031492;28;45455;-70
2022/11/12 05:19:29;;;;;;;;;25.25;19.25;;;;;10.96;76.89;102526.31;5031143;28;45369;-70
2022/11/12 05:22:06;;;;;;;;;19.25;19.25;;;;;10.75;77.73;102496.69;5031509;27;46264;-69
2022/11/12 05:24:40;;;;;;;;;25.00;19.75;;;;;10.84;77.89;102516.91;5030500;28;45374;-70
2022/11/12 05:27:10;;;;;;;;;20.00;18.00;;;;;11.01;78.26;102544.84;5031585;28;45371;-70
2022/11/12 05:29:36;;;;;;;;;23.00;22.00;;;;;10.84;77.59;102518.69;5031343;28;45493;-70
2022/11/12 05:32:02;;;;;;;;;19.75;19.00;;;;;11.01;77.43;102535.03;5012993;28;48508;-70
2022/11/12 05:34:28;;;;;;;;;25.50;22.75;;;;;11.01;77.42;102534.16;5013379;28;45642;-70
2022/11/12 05:36:53;;;;;;;;;21.75;19.25;;;;;11.00;77.47;102527.06;5031416;28;45650;-70
2022/11/12 05:39:18;;;;;;;;;21.50;21.50;;;;;10.81;77.54;102500.97;5031478;28;45462;-71
2022/11/12 05:41:44;;;;;;;;;25.75;23.25;;;;;10.88;77.07;102504.34;5013359;28;45822;-70
2022/11/12 05:44:09;;;;;;;;;24.25;21.50;;;;;10.74;77.92;102478.06;5013016;27;45670;-70
2022/11/12 05:46:35;;;;;;;;;24.25;23.00;;;;;11.09;77.71;102538.34;5031124;28;45460;-70
2022/11/12 05:49:00;;;;;;;;;18.75;18.75;;;;;11.08;78.04;102536.59;5030580;28;45293;-69
2022/11/12 05:51:25;;;;;;;;;26.75;22.00;;;;;11.07;78.06;102533.97;5030508;28;46578;-70
2022/11/12 05:53:51;;;;;;;;;18.50;16.25;;;;;10.99;78.13;102518.19;5030724;28;45341;-70
2022/11/12 05:56:16;;;;;;;;;21.75;20.25;;;;;10.84;78.30;102492.00;5030803;28;45343;-70
2022/11/12 05:58:41;;;;;;;;;18.00;17.75;;;;;11.09;78.88;102541.00;5031086;28;45468;-69
2022/11/12 06:01:07;;;;;;;;;21.00;18.50;;;;;10.62;78.66;102457.09;5029796;28;46295;-70
2022/11/12 06:03:32;;;;;;;;;18.25;16.00;;;;;11.06;78.83;102533.06;5012391;27;45374;-70
2022/11/12 06:05:58;;;;;;;;;22.00;21.25;;;;;11.14;79.26;102548.00;5013189;27;45448;-71
2022/11/12 06:08:23;;;;;;;;;19.25;17.00;;;;;10.93;79.20;102513.03;5031418;28;45358;-71
2022/11/12 06:10:52;;;;;;;;;21.25;18.00;;;;;11.07;78.60;102540.19;5031066;27;45355;-72
2022/11/12 06:13:20;;;;;;;;;22.50;20.25;;;;;11.10;78.64;102529.38;5031489;28;45444;-72
2022/11/12 06:15:45;;;;;;;;;21.75;19.75;;;;;11.21;79.16;102544.19;5031072;28;45388;-72
2022/11/12 06:18:10;;;;;;;;;22.50;20.00;;;;;11.19;79.10;102541.56;5032085;27;45537;-72
2022/11/12 06:20:36;;;;;;;;;22.50;19.25;;;;;11.18;79.19;102550.50;5031672;28;46392;-71
2022/11/12 06:23:01;;;;;;;;;20.50;19.00;;;;;11.20;78.85;102545.09;5012696;28;45446;-71
2022/11/12 06:25:27;;;;;;;;;28.50;24.25;;;;;10.99;78.52;102504.84;5047062;28;45602;-72
2022/11/12 06:27:53;;;;;;;;;22.00;19.75;;;;;11.19;79.05;102538.00;5052077;28;45485;-71
2022/11/12 06:30:18;;;;;;;;;21.50;20.00;;;;;11.04;78.74;102518.91;5052191;28;46960;-72
2022/11/12 06:32:48;;;;;;;;;18.50;16.00;;;;;11.17;78.93;102542.53;5050876;28;45273;-72
2022/11/12 06:35:14;;;;;;;;;21.25;18.50;;;;;11.18;78.69;102542.50;5050548;28;45804;-72
2022/11/12 06:37:40;;;;;;;;;21.75;18.50;;;;;11.14;78.87;102546.19;5050182;28;45511;-72
2022/11/12 06:40:06;;;;;;;;;21.50;21.25;;;;;11.04;78.97;102534.03;5051971;28;45372;-73
2022/11/12 06:42:32;;;;;;;;;22.50;20.00;;;;;10.88;78.59;102512.34;5051421;28;45401;-72
2022/11/12 06:44:57;;;;;;;;;29.75;20.75;;;;;11.08;79.07;102549.94;5050788;28;45374;-71
2022/11/12 06:47:23;;;;;;;;;17.75;17.75;;;;;10.94;78.56;102533.47;5051294;28;45589;-72
2022/11/12 06:49:48;;;;;;;;;19.00;19.00;;;;;10.95;78.55;102537.91;5050498;28;47238;-72
2022/11/12 06:52:16;;;;;;;;;18.25;15.50;;;;;11.05;78.58;102568.75;5050466;28;45427;-73
2022/11/12 06:54:41;;;;;;;;;18.00;18.00;;;;;11.00;78.34;102554.66;5050979;28;45403;-72
2022/11/12 06:57:07;;;;;;;;;23.75;20.00;;;;;10.97;78.90;102551.19;5050877;28;45443;-72
2022/11/12 06:59:32;;;;;;;;;18.25;16.50;;;;;10.82;78.85;102533.88;5120015;27;46417;-72
2022/11/12 07:01:57;;;;;;;;;22.75;21.00;;;;;11.03;78.53;102567.91;5050264;28;45498;-72
2022/11/12 07:04:23;;;;;;;;;18.25;17.75;;;;;11.00;79.04;102564.44;5032361;28;45488;-72
2022/11/12 07:06:49;;;;;;;;;15.75;12.25;;;;;10.36;78.70;102445.47;5031935;28;45541;-70
2022/11/12 07:09:14;;;;;;;;;21.00;20.50;;;;;10.95;79.10;102551.25;5049545;28;45479;-70
2022/11/12 07:11:39;;;;;;;;;21.75;18.75;;;;;10.98;79.42;102556.50;5049640;28;46895;-70
2022/11/12 07:14:05;;;;;;;;;23.00;21.50;;;;;10.99;79.25;102558.25;5032879;28;45318;-70
2022/11/12 07:16:31;;;;;;;;;16.00;10.25;;;;;10.29;78.81;102434.09;5031116;28;45362;-70
2022/11/12 07:18:57;;;;;;;;;21.50;17.25;;;;;10.98;79.21;102560.97;5049608;28;46269;-70
2022/11/12 07:21:22;;;;;;;;;21.50;19.50;;;;;10.71;78.89;102516.41;5049752;28;45388;-71
2022/11/12 07:23:47;;;;;;;;;19.25;18.00;;;;;10.79;78.84;102537.53;5049673;28;45369;-70
2022/11/12 07:26:13;;;;;;;;;21.25;21.25;;;;;11.00;79.00;102576.03;5049672;28;45742;-70
2022/11/12 07:28:38;;;;;;;;;18.50;16.75;;;;;11.00;79.07;102565.34;5049583;28;45364;-71
2022/11/12 07:31:08;;;;;;;;;22.00;19.50;;;;;10.96;79.28;102563.69;5049805;28;45393;-71
2022/11/12 07:33:34;;;;;;;;;17.25;16.25;;;;;10.96;78.58;102558.34;5032051;28;45454;-71
2022/11/12 07:36:20;;;;;;;;;21.50;20.00;;;;;11.04;78.92;102580.34;5030301;28;45452;-71
2022/11/12 07:38:49;;;;;;;;;23.75;20.50;;;;;11.07;79.30;102588.25;5015003;27;47125;-71
2022/11/12 07:41:23;;;;;;;;;23.75;22.50;;;;;11.02;78.81;102574.16;5011618;28;45393;-71
2022/11/12 07:43:50;;;;;;;;;24.00;22.75;;;;;11.10;79.14;102587.28;5030649;28;45382;-71
2022/11/12 07:46:21;;;;;;;;;24.75;21.25;;;;;11.09;78.76;102591.75;5027650;28;45648;-71
2022/11/12 07:48:46;;;;;;;;;19.00;17.50;;;;;11.03;79.29;102559.91;5028599;28;47421;-72
2022/11/12 07:51:20;;;;;;;;;26.00;23.75;;;;;11.21;79.02;102581.59;5029206;28;45220;-71
2022/11/12 07:53:47;;;;;;;;;27.50;26.25;;;;;10.59;78.83;102484.75;5014055;28;45427;-71
2022/11/12 07:56:18;;;;;;;;;26.50;22.25;;;;;11.23;79.00;102588.63;5013802;28;45740;-70
2022/11/12 07:58:44;;;;;;;;;22.00;20.00;;;;;11.32;78.87;102599.94;5013672;28;46140;-71
2022/11/12 08:01:09;;;;;;;;;26.50;24.00;;;;;11.38;78.64;102592.59;5013374;28;45429;-71
2022/11/12 08:03:35;;;;;;;;;26.25;25.75;;;;;11.39;78.69;102604.13;5013851;28;45392;-70
2022/11/12 08:06:00;;;;;;;;;26.00;22.50;;;;;11.45;78.19;102599.47;5014448;28;45369;-72
2022/11/12 08:08:26;;;;;;;;;26.75;23.00;;;;;11.33;77.92;102573.16;5014049;28;45230;-72
2022/11/12 08:10:56;;;;;;;;;24.25;22.50;;;;;11.50;78.18;102601.09;5014158;28;45422;-72
2022/11/12 08:13:22;;;;;;;;;28.75;25.00;;;;;11.38;78.58;102575.69;5025247;28;45383;-73
2022/11/12 08:15:47;;;;;;;;;25.25;23.75;;;;;11.68;78.16;102621.03;5034695;28;45350;-72
2022/11/12 08:18:13;;;;;;;;;24.00;22.50;;;;;11.61;77.65;102594.47;5034468;28;45394;-73
2022/11/12 08:20:38;;;;;;;;;25.00;22.50;;;;;11.81;77.33;102605.41;5034597;28;45308;-73
2022/11/12 08:23:04;;;;;;;;;25.25;19.50;;;;;11.88;77.43;102606.97;5034592;28;45317;-73
2022/11/12 08:25:29;;;;;;;;;27.25;23.25;;;;;11.93;78.43;102605.88;5034538;28;45331;-72
2022/11/12 08:27:59;;;;;;;;;21.25;21.25;;;;;12.08;77.82;102614.31;5033780;27;46142;-72
2022/11/12 08:30:28;;;;;;;;;26.00;23.25;;;;;12.20;77.39;102623.69;5034039;28;45553;-72
2022/11/12 08:32:56;;;;;;;;;26.50;26.00;;;;;12.31;77.08;102620.59;5034468;27;45415;-73
2022/11/12 08:35:21;;;;;;;;;21.50;21.50;;;;;12.32;77.58;102617.00;5034177;28;45455;-72
2022/11/12 08:37:46;;;;;;;;;21.75;20.50;;;;;12.48;77.34;102625.34;5015737;28;46597;-72
2022/11/12 08:40:12;;;;;;;;;23.25;22.25;;;;;12.47;77.01;102615.56;5033754;27;45238;-72
2022/11/12 08:42:37;;;;;;;;;23.25;23.25;;;;;11.92;76.88;102513.19;5034208;27;45521;-72
2022/11/12 08:45:03;;;;;;;;;25.50;24.00;;;;;12.68;76.99;102627.28;5033933;28;45306;-73
2022/11/12 08:47:28;;;;;;;;;23.25;20.00;;;;;12.62;76.08;102606.97;5033868;28;45315;-72
2022/11/12 08:49:53;;;;;;;;;21.75;21.75;;;;;12.78;74.85;102618.81;5016184;28;45521;-72
2022/11/12 08:52:19;;;;;;;;;24.50;23.25;;;;;12.79;74.50;102612.53;5016552;28;45321;-72
2022/11/12 08:54:44;;;;;;;;;28.25;24.00;;;;;12.93;74.63;102620.03;5033606;28;45384;-72
2022/11/12 08:57:09;;;;;;;;;28.25;26.50;;;;;13.00;74.24;102617.09;5033287;28;46245;-72
2022/11/12 08:59:35;;;;;;;;;24.00;24.00;;;;;12.78;74.21;102578.66;5014463;27;45340;-72
2022/11/12 09:02:00;;;;;;;;;24.00;22.25;;;;;13.10;73.83;102614.00;5033334;28;45451;-72
2022/11/12 09:04:25;;;;;;;;;27.50;25.75;;;;;12.61;73.74;102519.53;5033659;28;45612;-72
2022/11/12 09:06:51;;;;;;;;;24.00;22.50;;;;;13.10;73.69;102595.25;5032031;27;46385;-71
2022/11/12 09:09:16;;;;;;;;;29.75;26.00;;;;;13.15;73.61;102603.09;5032371;28;45310;-71
2022/11/12 09:11:41;;;;;;;;;25.75;24.50;;;;;13.12;73.18;102592.50;5032803;28;45410;-70
2022/11/12 09:14:07;;;;;;;;;23.50;22.50;;;;;13.08;73.09;102580.16;5031242;28;45430;-70
2022/11/12 09:16:32;;;;;;;;;25.50;23.25;;;;;13.24;73.17;102596.47;5032420;28;45354;-70
2022/11/12 09:18:57;;;;;;;;;24.25;23.25;;;;;13.39;72.64;102616.47;5032868;28;45427;-69
2022/11/12 09:21:23;;;;;;;;;26.25;25.25;;;;;13.36;73.03;102595.13;5032742;28;45378;-70
2022/11/12 09:23:49;;;;;;;;;25.50;23.50;;;;;13.53;73.24;102610.50;5032275;28;45337;-69
2022/11/12 09:26:14;;;;;;;;;26.25;26.25;;;;;13.53;72.74;102602.47;5031718;28;46947;-70
2022/11/12 09:28:39;;;;;;;;;25.25;21.75;;;;;13.56;72.34;102602.34;5032214;27;45487;-70
2022/11/12 09:31:06;;;;;;;;;20.75;20.00;;;;;13.68;72.90;102617.91;5031559;27;45354;-70
2022/11/12 09:33:32;;;;;;;;;27.00;26.25;;;;;13.50;72.28;102575.81;5032560;28;45297;-70
2022/11/12 09:36:02;;;;;;;;;30.50;25.75;;;;;13.49;71.85;102555.28;5032142;28;46334;-71
2022/11/12 09:38:28;;;;;;;;;28.00;25.00;;;;;13.83;71.75;102602.09;5046572;28;45456;-69
2022/11/12 09:41:05;;;;;;;;;23.00;23.00;;;;;13.94;71.59;102607.84;5014216;28;45395;-70
2022/11/12 09:43:35;;;;;;;;;25.50;23.25;;;;;13.84;71.74;102585.06;5031005;28;45444;-70
2022/11/12 09:46:24;;;;;;;;;30.50;27.75;;;;;13.96;71.03;102605.97;5031997;28;46198;-70
2022/11/12 09:48:57;;;;;;;;;26.75;25.00;;;;;13.92;71.04;102572.19;5032327;28;45350;-69
2022/11/12 09:51:36;;;;;;;;;25.50;25.50;;;;;14.26;70.84;102608.22;5030913;27;45416;-69
2022/11/12 09:54:06;;;;;;;;;21.75;20.50;;;;;14.47;70.00;102599.19;5031238;28;45304;-70
2022/11/12 09:56:31;;;;;;;;;33.25;28.75;;;;;14.83;69.05;102619.03;5032180;28;45390;-69
2022/11/12 09:58:56;;;;;;;;;26.25;24.75;;;;;15.06;68.52;102617.06;5031988;28;45398;-69
2022/11/12 10:01:40;;;;;;;;;27.75;26.00;;;;;15.26;68.56;102621.47;5044430;28;46472;-70
2022/11/12 10:04:30;;;;;;;;;31.25;30.25;;;;;15.46;68.36;102626.72;5052044;28;45551;-70
2022/11/12 10:07:13;;;;;;;;;22.50;22.25;;;;;15.67;67.22;102621.22;5052539;28;46446;-72
2022/11/12 10:09:50;;;;;;;;;32.00;28.25;;;;;15.80;67.48;102630.44;5051936;28;45383;-70
2022/11/12 10:12:31;;;;;;;;;28.00;26.75;;;;;15.65;66.78;102593.50;5050663;28;45346;-73
2022/11/12 10:18:22;;;;;;;;;31.00;28.50;;;;;16.15;65.76;102624.13;5032098;28;45735;-72
2022/11/12 10:21:26;;;;;;;;;31.00;27.50;;;;;16.22;65.71;102627.38;5032352;28;45364;-72
2022/11/12 10:23:52;;;;;;;;;20.50;20.50;;;;;16.23;65.39;102608.44;5032899;27;46011;-72
2022/11/12 10:26:21;;;;;;;;;28.75;28.00;;;;;16.06;65.33;102579.75;5031443;28;45493;-72
2022/11/12 10:28:58;;;;;;;;;30.50;28.00;;;;;16.27;65.93;102606.47;5031613;28;45449;-72
2022/11/12 10:31:23;;;;;;;;;25.25;24.50;;;;;16.27;66.62;102595.69;5015169;28;45766;-72
2022/11/12 10:33:48;;;;;;;;;32.75;29.00;;;;;16.18;66.18;102558.50;5031758;27;45415;-72
2022/11/12 10:36:36;;;;;;;;;29.25;24.50;;;;;16.53;65.61;102596.94;5032109;27;45510;-72
2022/11/12 10:39:01;;;;;;;;;25.00;22.75;;;;;16.61;65.26;102602.81;5032128;28;46160;-72
2022/11/12 10:41:29;;;;;;;;;29.00;28.00;;;;;16.68;65.00;102595.25;5031504;28;45411;-72
2022/11/12 10:44:04;;;;;;;;;27.25;24.25;;;;;16.71;65.32;102603.16;5031783;28;45472;-72
2022/11/12 10:46:37;;;;;;;;;28.75;25.00;;;;;16.74;64.56;102600.28;5029953;28;45381;-71
2022/11/12 10:49:06;;;;;;;;;32.25;30.00;;;;;16.81;64.65;102593.56;5031447;28;45544;-71
2022/11/12 10:51:34;;;;;;;;;27.25;26.25;;;;;16.85;64.49;102604.22;5031271;28;45312;-70
2022/11/12 10:54:19;;;;;;;;;25.75;24.75;;;;;16.88;64.66;102602.19;5031968;28;45321;-71
2022/11/12 10:56:44;;;;;;;;;29.00;27.25;;;;;16.78;64.08;102582.13;5013765;28;45275;-72
2022/11/12 10:59:12;;;;;;;;;25.00;23.75;;;;;16.78;64.42;102587.50;5031424;27;45538;-72
2022/11/12 11:01:38;;;;;;;;;22.50;22.50;;;;;16.73;65.76;102552.72;5031072;27;45486;-72
2022/11/12 11:04:14;;;;;;;;;25.75;23.25;;;;;16.81;64.90;102533.44;5013370;27;45398;-72
2022/11/12 11:06:39;;;;;;;;;26.00;26.00;;;;;16.97;64.75;102538.84;5030807;28;45402;-72
2022/11/12 11:09:16;;;;;;;;;25.50;24.50;;;;;17.20;64.69;102550.13;5030743;28;45967;-72
2022/11/12 11:11:51;;;;;;;;;29.50;27.50;;;;;17.48;64.15;102561.00;5031303;28;45355;-72
2022/11/12 11:14:23;;;;;;;;;25.75;25.75;;;;;17.58;63.41;102555.91;5030219;28;45477;-70
2022/11/12 11:16:51;;;;;;;;;25.25;23.50;;;;;17.71;63.20;102564.13;5013557;28;45391;-71
2022/11/12 11:19:17;;;;;;;;;25.00;22.75;;;;;17.70;62.19;102553.44;5031055;28;45268;-72
2022/11/12 11:22:01;;;;;;;;;33.25;29.25;;;;;17.79;63.46;102537.53;5032053;27;45199;-72
2022/11/12 11:24:35;;;;;;;;;35.00;31.50;;;;;18.02;62.62;102551.47;5032903;28;45283;-71
2022/11/12 11:27:19;;;;;;;;;70.25;57.00;;;;;18.13;63.18;102535.47;5033784;28;45391;-70
2022/11/12 11:29:47;;;;;;;;;24.50;24.50;;;;;18.24;62.12;102526.69;5033759;28;47394;-71
2022/11/12 11:32:34;;;;;;;;;48.75;40.00;;;;;18.35;62.22;102525.13;5033946;28;45320;-71